Time;durP1;ratioP1;P1;durP2;ratioP2;P2;SDS_P1;SDS_P2;PMS_P1;PMS_P2;Temp;Humidity;BMP_temperature;BMP_pressure;BME280_temperature;BME280_humidity;BME280_pressure;Samples;Min_cycle;Max_cycle;Signal;HPM_P1;HPM_P2
2021/03/09 00:02:03;;;;;;;0.17;0.17;;;;;;;;;;5050545;28;20204;-76
2021/03/09 00:04:29;;;;;;;1.98;1.88;;;;;;;;;;5049545;28;20161;-75
2021/03/09 00:06:55;;;;;;;0.20;0.20;;;;;;;;;;5050589;28;20231;-75
2021/03/09 00:09:22;;;;;;;0.43;0.43;;;;;;;;;;5050472;28;20197;-75
2021/03/09 00:11:48;;;;;;;0.00;0.00;;;;;;;;;;5050518;28;20170;-75
2021/03/09 00:14:14;;;;;;;0.10;0.10;;;;;;;;;;5050503;28;20163;-75
2021/03/09 00:16:40;;;;;;;0.10;0.10;;;;;;;;;;5050413;28;20213;-75
2021/03/09 00:19:06;;;;;;;1.15;1.05;;;;;;;;;;5048999;28;20197;-75
2021/03/09 00:21:32;;;;;;;0.10;0.10;;;;;;;;;;5048892;28;20201;-75
2021/03/09 00:23:59;;;;;;;0.55;0.50;;;;;;;;;;5050154;28;20157;-74
2021/03/09 00:26:25;;;;;;;0.85;0.85;;;;;;;;;;5050184;28;20240;-74
2021/03/09 00:28:51;;;;;;;0.55;0.55;;;;;;;;;;5048907;28;20201;-75
2021/03/09 00:31:17;;;;;;;0.10;0.10;;;;;;;;;;5050160;28;20626;-75
2021/03/09 00:33:44;;;;;;;0.95;0.95;;;;;;;;;;5050058;28;20553;-75
2021/03/09 00:36:10;;;;;;;0.30;0.30;;;;;;;;;;5050085;28;20622;-75
2021/03/09 00:38:36;;;;;;;0.40;0.40;;;;;;;;;;5049996;28;20240;-75
2021/03/09 00:41:02;;;;;;;0.63;0.63;;;;;;;;;;5048507;28;20204;-74
2021/03/09 00:43:28;;;;;;;0.15;0.15;;;;;;;;;;5049916;28;20169;-74
2021/03/09 00:45:54;;;;;;;1.08;1.08;;;;;;;;;;5049890;28;20166;-74
2021/03/09 00:48:21;;;;;;;3.33;1.95;;;;;;;;;;5047904;28;20229;-75
2021/03/09 00:50:47;;;;;;;0.20;0.20;;;;;;;;;;5049750;28;20176;-75
2021/03/09 00:53:13;;;;;;;0.30;0.30;;;;;;;;;;5049770;28;20168;-75
2021/03/09 00:55:39;;;;;;;1.35;1.35;;;;;;;;;;5049791;28;20158;-76
2021/03/09 00:58:05;;;;;;;2.10;2.00;;;;;;;;;;5049662;28;20221;-75
2021/03/09 01:00:32;;;;;;;5.38;1.65;;;;;;;;;;5049456;28;20221;-76
2021/03/09 01:02:58;;;;;;;0.20;0.20;;;;;;;;;;5049625;28;20161;-75
2021/03/09 01:05:24;;;;;;;1.88;1.75;;;;;;;;;;5048470;28;20225;-76
2021/03/09 01:07:51;;;;;;;0.88;0.88;;;;;;;;;;5048552;28;20188;-77
2021/03/09 01:10:18;;;;;;;0.55;0.55;;;;;;;;;;5049705;28;20216;-75
2021/03/09 01:12:44;;;;;;;2.47;1.75;;;;;;;;;;5049624;28;20164;-76
2021/03/09 01:15:11;;;;;;;1.65;1.08;;;;;;;;;;5049606;28;20170;-77
2021/03/09 01:17:37;;;;;;;0.52;0.52;;;;;;;;;;5049101;28;20166;-76
2021/03/09 01:20:04;;;;;;;1.83;0.93;;;;;;;;;;5049250;28;20231;-74
2021/03/09 01:22:31;;;;;;;0.63;0.60;;;;;;;;;;5049216;28;20240;-74
2021/03/09 01:24:57;;;;;;;4.25;1.48;;;;;;;;;;5048088;28;20180;-74
2021/03/09 01:27:23;;;;;;;0.10;0.10;;;;;;;;;;5048054;28;20165;-75
2021/03/09 01:29:49;;;;;;;0.38;0.38;;;;;;;;;;5048015;28;20280;-76
2021/03/09 01:32:16;;;;;;;0.85;0.73;;;;;;;;;;5049247;28;20169;-74
2021/03/09 01:34:42;;;;;;;0.65;0.47;;;;;;;;;;5047898;28;20193;-75
2021/03/09 01:37:08;;;;;;;0.52;0.52;;;;;;;;;;5049152;28;20164;-75
2021/03/09 01:39:34;;;;;;;1.15;1.15;;;;;;;;;;5049140;28;20234;-75
2021/03/09 01:42:01;;;;;;;0.47;0.47;;;;;;;;;;5049070;28;20200;-75
2021/03/09 01:44:28;;;;;;;0.10;0.10;;;;;;;;;;5047753;28;20177;-75
2021/03/09 01:46:55;;;;;;;0.90;0.90;;;;;;;;;;5049094;28;20169;-75
2021/03/09 01:49:22;;;;;;;3.38;1.63;;;;;;;;;;5048132;28;20233;-74
2021/03/09 01:51:48;;;;;;;0.50;0.50;;;;;;;;;;5048926;28;20172;-76
2021/03/09 01:54:15;;;;;;;0.73;0.73;;;;;;;;;;5047812;28;20180;-75
2021/03/09 01:56:42;;;;;;;2.05;1.88;;;;;;;;;;5049073;28;20228;-76
2021/03/09 01:59:09;;;;;;;0.25;0.25;;;;;;;;;;5049012;28;20197;-75
2021/03/09 02:01:35;;;;;;;1.75;1.67;;;;;;;;;;5052682;28;20192;-75
2021/03/09 02:04:03;;;;;;;0.52;0.52;;;;;;;;;;5052056;28;20196;-76
2021/03/09 02:06:30;;;;;;;0.10;0.10;;;;;;;;;;5051768;28;20630;-75
2021/03/09 02:08:56;;;;;;;0.80;0.80;;;;;;;;;;5053229;28;20248;-76
2021/03/09 02:11:25;;;;;;;0.22;0.22;;;;;;;;;;5051681;28;20180;-74
2021/03/09 02:13:57;;;;;;;0.57;0.57;;;;;;;;;;5051700;28;20545;-75
2021/03/09 02:16:29;;;;;;;0.88;0.88;;;;;;;;;;5052615;28;20204;-75
2021/03/09 02:19:00;;;;;;;0.10;0.10;;;;;;;;;;5052495;28;20197;-75
2021/03/09 02:21:26;;;;;;;0.35;0.35;;;;;;;;;;5052598;28;20190;-74
2021/03/09 02:23:53;;;;;;;0.20;0.20;;;;;;;;;;5051215;28;20178;-76
2021/03/09 02:26:19;;;;;;;1.67;1.33;;;;;;;;;;5052443;28;20169;-76
2021/03/09 02:29:03;;;;;;;0.17;0.17;;;;;;;;;;5051147;28;20200;-75
2021/03/09 02:31:31;;;;;;;1.27;1.20;;;;;;;;;;5052379;28;20176;-75
2021/03/09 02:34:05;;;;;;;0.40;0.40;;;;;;;;;;5051033;28;20192;-74
2021/03/09 02:36:32;;;;;;;0.38;0.38;;;;;;;;;;5052668;28;20168;-74
2021/03/09 02:38:59;;;;;;;0.35;0.35;;;;;;;;;;5052213;28;20193;-75
2021/03/09 02:41:26;;;;;;;0.30;0.30;;;;;;;;;;5052207;28;20189;-74
2021/03/09 02:43:54;;;;;;;3.13;1.80;;;;;;;;;;5052065;28;20208;-75
2021/03/09 02:46:21;;;;;;;0.98;0.98;;;;;;;;;;5050990;28;20169;-74
2021/03/09 02:48:48;;;;;;;0.20;0.20;;;;;;;;;;5050556;28;20311;-75
2021/03/09 02:51:15;;;;;;;1.30;1.30;;;;;;;;;;5052053;28;20211;-75
2021/03/09 02:53:50;;;;;;;1.42;1.33;;;;;;;;;;5050474;28;20210;-74
2021/03/09 02:56:17;;;;;;;5.38;2.95;;;;;;;;;;5050701;28;20188;-75
2021/03/09 02:58:48;;;;;;;1.60;1.33;;;;;;;;;;5051851;28;20197;-76
2021/03/09 03:01:15;;;;;;;0.35;0.35;;;;;;;;;;5050456;28;20227;-75
2021/03/09 03:03:43;;;;;;;0.40;0.40;;;;;;;;;;5051865;28;20191;-75
2021/03/09 03:06:10;;;;;;;0.28;0.28;;;;;;;;;;5051728;28;20638;-74
2021/03/09 03:08:37;;;;;;;0.50;0.50;;;;;;;;;;5045006;28;20177;-76
2021/03/09 03:11:04;;;;;;;2.72;2.63;;;;;;;;;;5031580;28;20166;-75
2021/03/09 03:13:31;;;;;;;0.47;0.47;;;;;;;;;;5030420;28;20200;-75
2021/03/09 03:15:58;;;;;;;1.23;0.90;;;;;;;;;;5031805;28;20173;-76
2021/03/09 03:18:25;;;;;;;0.73;0.73;;;;;;;;;;5030339;28;20217;-75
2021/03/09 03:20:52;;;;;;;0.10;0.10;;;;;;;;;;5030363;28;20199;-75
2021/03/09 03:23:19;;;;;;;0.40;0.40;;;;;;;;;;5031553;28;20166;-75
2021/03/09 03:25:46;;;;;;;0.10;0.10;;;;;;;;;;5031569;28;20297;-75
2021/03/09 03:28:14;;;;;;;0.10;0.10;;;;;;;;;;5031598;28;20166;-75
2021/03/09 03:30:40;;;;;;;0.20;0.20;;;;;;;;;;5031358;28;20216;-74
2021/03/09 03:33:06;;;;;;;1.05;0.98;;;;;;;;;;5031206;28;20160;-74
2021/03/09 03:35:33;;;;;;;1.02;1.02;;;;;;;;;;5029900;28;20162;-74
2021/03/09 03:38:01;;;;;;;1.38;1.38;;;;;;;;;;5031344;28;20163;-74
2021/03/09 03:40:27;;;;;;;0.80;0.80;;;;;;;;;;5031041;28;20221;-77
2021/03/09 03:42:53;;;;;;;1.80;1.67;;;;;;;;;;5030856;28;20222;-75
2021/03/09 03:45:20;;;;;;;0.20;0.20;;;;;;;;;;5029579;28;20172;-75
2021/03/09 03:47:47;;;;;;;0.80;0.80;;;;;;;;;;5029373;28;20249;-76
2021/03/09 03:50:15;;;;;;;1.85;1.80;;;;;;;;;;5030906;28;20197;-76
2021/03/09 03:53:00;;;;;;;0.85;0.85;;;;;;;;;;5030915;28;20189;-75
2021/03/09 03:55:45;;;;;;;0.32;0.32;;;;;;;;;;5029431;28;20204;-75
2021/03/09 03:58:31;;;;;;;0.10;0.10;;;;;;;;;;5029311;28;20212;-74
2021/03/09 04:00:58;;;;;;;0.68;0.68;;;;;;;;;;5010019;28;20218;-76
2021/03/09 04:03:24;;;;;;;0.13;0.13;;;;;;;;;;5029450;28;20201;-75
2021/03/09 04:05:51;;;;;;;0.77;0.77;;;;;;;;;;5029554;28;20193;-76
2021/03/09 04:08:18;;;;;;;0.30;0.30;;;;;;;;;;5029581;28;20174;-75
2021/03/09 04:10:47;;;;;;;0.08;0.08;;;;;;;;;;5029348;28;20181;-75
2021/03/09 04:13:14;;;;;;;5.15;2.92;;;;;;;;;;5030606;28;20163;-76
2021/03/09 04:15:41;;;;;;;0.90;0.90;;;;;;;;;;5029176;28;20307;-76
2021/03/09 04:18:07;;;;;;;2.63;1.02;;;;;;;;;;5030339;28;20162;-74
2021/03/09 04:20:35;;;;;;;0.13;0.13;;;;;;;;;;5030292;28;20214;-74
2021/03/09 04:23:03;;;;;;;0.47;0.47;;;;;;;;;;5028671;28;20596;-76
2021/03/09 04:25:31;;;;;;;1.42;1.42;;;;;;;;;;5029230;28;20170;-76
2021/03/09 04:27:57;;;;;;;0.30;0.30;;;;;;;;;;5030297;28;20166;-76
2021/03/09 04:30:24;;;;;;;1.85;1.75;;;;;;;;;;5030270;28;20198;-75
2021/03/09 04:32:51;;;;;;;0.10;0.10;;;;;;;;;;5030302;28;20220;-75
2021/03/09 04:35:18;;;;;;;1.80;1.70;;;;;;;;;;5030097;28;20227;-75
2021/03/09 04:37:45;;;;;;;0.70;0.70;;;;;;;;;;5030013;28;20166;-75
2021/03/09 04:40:11;;;;;;;1.27;1.27;;;;;;;;;;5029976;28;20193;-75
2021/03/09 04:42:38;;;;;;;0.40;0.40;;;;;;;;;;5029839;28;20257;-75
2021/03/09 04:45:05;;;;;;;2.05;1.65;;;;;;;;;;5029607;28;20158;-75
2021/03/09 04:47:32;;;;;;;0.10;0.10;;;;;;;;;;5029674;28;20158;-75
2021/03/09 04:49:59;;;;;;;3.35;1.88;;;;;;;;;;5028321;28;20305;-75
2021/03/09 04:52:26;;;;;;;0.20;0.20;;;;;;;;;;5028459;28;20174;-75
2021/03/09 04:54:53;;;;;;;2.47;1.85;;;;;;;;;;5040637;28;20204;-76
2021/03/09 04:57:19;;;;;;;0.30;0.30;;;;;;;;;;5049451;28;20267;-75
2021/03/09 04:59:45;;;;;;;0.22;0.20;;;;;;;;;;5049213;28;20227;-75
2021/03/09 05:02:12;;;;;;;1.90;1.80;;;;;;;;;;5049344;28;20246;-76
2021/03/09 05:04:38;;;;;;;0.20;0.20;;;;;;;;;;5049381;28;20166;-75
2021/03/09 05:07:04;;;;;;;0.45;0.45;;;;;;;;;;5049379;28;20618;-75
2021/03/09 05:09:30;;;;;;;0.43;0.28;;;;;;;;;;5049265;28;20246;-75
2021/03/09 05:11:57;;;;;;;0.20;0.20;;;;;;;;;;5043050;28;20196;-76
2021/03/09 05:14:23;;;;;;;0.82;0.80;;;;;;;;;;5047983;28;20216;-76
2021/03/09 05:16:49;;;;;;;0.40;0.17;;;;;;;;;;5048384;28;20240;-75
2021/03/09 05:19:15;;;;;;;0.82;0.68;;;;;;;;;;5048738;28;20162;-75
2021/03/09 05:21:41;;;;;;;1.27;1.27;;;;;;;;;;5049011;28;20247;-75
2021/03/09 05:24:08;;;;;;;1.25;1.20;;;;;;;;;;5047964;28;20193;-75
2021/03/09 05:26:34;;;;;;;1.65;1.50;;;;;;;;;;5047351;28;20158;-75
2021/03/09 05:29:01;;;;;;;0.17;0.17;;;;;;;;;;5048774;28;20161;-74
2021/03/09 05:31:27;;;;;;;1.85;1.75;;;;;;;;;;5048845;28;20157;-74
2021/03/09 05:33:56;;;;;;;1.48;1.17;;;;;;;;;;5048330;28;20185;-75
2021/03/09 05:36:22;;;;;;;4.60;3.72;;;;;;;;;;5048689;28;20169;-74
2021/03/09 05:38:49;;;;;;;0.40;0.40;;;;;;;;;;5048730;28;20158;-74
2021/03/09 05:41:15;;;;;;;0.40;0.40;;;;;;;;;;5048672;28;20220;-75
2021/03/09 05:43:42;;;;;;;0.20;0.20;;;;;;;;;;5048626;28;20197;-74
2021/03/09 05:46:09;;;;;;;0.50;0.50;;;;;;;;;;5048338;28;20184;-74
2021/03/09 05:48:37;;;;;;;0.30;0.30;;;;;;;;;;5047600;28;20243;-74
2021/03/09 05:51:03;;;;;;;0.88;0.88;;;;;;;;;;5048554;28;20173;-74
2021/03/09 05:53:29;;;;;;;0.52;0.50;;;;;;;;;;5048347;28;20256;-74
2021/03/09 05:55:55;;;;;;;1.15;1.10;;;;;;;;;;5048794;28;20165;-75
2021/03/09 05:58:21;;;;;;;0.85;0.85;;;;;;;;;;5048605;28;20162;-75
2021/03/09 06:00:48;;;;;;;2.05;1.90;;;;;;;;;;5048500;28;20169;-75
2021/03/09 06:03:14;;;;;;;0.52;0.52;;;;;;;;;;5047343;28;20240;-75
2021/03/09 06:05:40;;;;;;;0.70;0.70;;;;;;;;;;5047144;28;20636;-75
2021/03/09 06:08:07;;;;;;;0.10;0.10;;;;;;;;;;5047290;28;20188;-75
2021/03/09 06:10:33;;;;;;;0.10;0.10;;;;;;;;;;5048070;28;20154;-75
2021/03/09 06:12:59;;;;;;;1.10;1.10;;;;;;;;;;5047329;28;20212;-75
2021/03/09 06:15:26;;;;;;;0.15;0.15;;;;;;;;;;5048340;28;20219;-75
2021/03/09 06:17:58;;;;;;;2.50;2.30;;;;;;;;;;5047272;28;20188;-75
2021/03/09 06:20:26;;;;;;;0.20;0.20;;;;;;;;;;5048462;28;20169;-75
2021/03/09 06:22:54;;;;;;;0.38;0.38;;;;;;;;;;5047096;28;20238;-75
2021/03/09 06:25:21;;;;;;;2.72;1.67;;;;;;;;;;5046867;28;20181;-75
2021/03/09 06:27:48;;;;;;;1.00;1.00;;;;;;;;;;5048383;28;20221;-76
2021/03/09 06:30:15;;;;;;;0.90;0.90;;;;;;;;;;5047071;28;20176;-75
2021/03/09 06:32:45;;;;;;;0.20;0.20;;;;;;;;;;5047928;28;20256;-75
2021/03/09 06:35:38;;;;;;;0.65;0.65;;;;;;;;;;5047100;28;20189;-76
2021/03/09 06:38:19;;;;;;;0.17;0.17;;;;;;;;;;5045822;28;20216;-74
2021/03/09 06:41:04;;;;;;;0.90;0.90;;;;;;;;;;5046817;28;20231;-76
2021/03/09 06:43:30;;;;;;;1.55;1.55;;;;;;;;;;5047963;28;20216;-74
2021/03/09 06:46:09;;;;;;;0.40;0.40;;;;;;;;;;5047008;28;20538;-74
2021/03/09 06:48:38;;;;;;;0.70;0.70;;;;;;;;;;5051283;28;20228;-74
2021/03/09 06:51:04;;;;;;;1.30;1.23;;;;;;;;;;5051791;28;20178;-74
2021/03/09 06:53:30;;;;;;;2.13;2.03;;;;;;;;;;5050427;28;20755;-75
2021/03/09 06:55:56;;;;;;;0.20;0.20;;;;;;;;;;5050473;28;20192;-76
2021/03/09 06:58:29;;;;;;;0.38;0.38;;;;;;;;;;5050921;28;20165;-77
2021/03/09 07:01:13;;;;;;;0.50;0.50;;;;;;;;;;5050317;28;20197;-75
2021/03/09 07:03:39;;;;;;;0.22;0.22;;;;;;;;;;5045614;28;20202;-76
2021/03/09 07:06:05;;;;;;;0.98;0.50;;;;;;;;;;5031149;28;20162;-75
2021/03/09 07:08:31;;;;;;;0.55;0.55;;;;;;;;;;5029776;28;20166;-75
2021/03/09 07:10:58;;;;;;;5.50;3.10;;;;;;;;;;5030985;28;20158;-75
2021/03/09 07:13:25;;;;;;;0.52;0.52;;;;;;;;;;5029713;28;20186;-75
2021/03/09 07:15:52;;;;;;;1.38;1.27;;;;;;;;;;5031307;28;20170;-76
2021/03/09 07:18:22;;;;;;;1.40;1.30;;;;;;;;;;5030620;28;20162;-76
2021/03/09 07:20:51;;;;;;;0.35;0.35;;;;;;;;;;5029975;28;20159;-75
2021/03/09 07:23:21;;;;;;;0.10;0.10;;;;;;;;;;5029739;28;20261;-75
2021/03/09 07:25:58;;;;;;;1.75;1.65;;;;;;;;;;5030877;28;20185;-74
2021/03/09 07:28:28;;;;;;;0.98;0.90;;;;;;;;;;5030792;28;20185;-76
2021/03/09 07:30:55;;;;;;;1.60;1.50;;;;;;;;;;5029366;28;20169;-75
2021/03/09 07:33:21;;;;;;;2.33;2.17;;;;;;;;;;5029793;28;20201;-76
2021/03/09 07:35:48;;;;;;;0.10;0.10;;;;;;;;;;5030938;28;20166;-77
2021/03/09 07:38:21;;;;;;;1.38;0.85;;;;;;;;;;5029706;28;20170;-76
2021/03/09 07:40:47;;;;;;;1.50;1.45;;;;;;;;;;5033557;28;20178;-76
2021/03/09 07:43:14;;;;;;;1.17;1.17;;;;;;;;;;5050727;28;20197;-75
2021/03/09 07:45:41;;;;;;;0.15;0.15;;;;;;;;;;5051102;28;20172;-75
2021/03/09 07:48:09;;;;;;;1.00;0.68;;;;;;;;;;5049755;28;20229;-75
2021/03/09 07:50:41;;;;;;;0.65;0.65;;;;;;;;;;5050862;28;20203;-75
2021/03/09 07:53:11;;;;;;;0.10;0.10;;;;;;;;;;5050165;28;20286;-76
2021/03/09 07:55:38;;;;;;;1.35;1.23;;;;;;;;;;5050097;28;20197;-74
2021/03/09 07:58:14;;;;;;;0.85;0.85;;;;;;;;;;5048468;28;20181;-76
2021/03/09 08:01:03;;;;;;;0.73;0.73;;;;;;;;;;5048207;28;20230;-76
2021/03/09 08:03:33;;;;;;;1.10;1.10;;;;;;;;;;5050164;28;20303;-74
2021/03/09 08:06:00;;;;;;;0.00;0.00;;;;;;;;;;5048904;28;20181;-74
2021/03/09 08:08:38;;;;;;;0.77;0.77;;;;;;;;;;5050276;28;20168;-74
2021/03/09 08:11:05;;;;;;;0.85;0.85;;;;;;;;;;5048452;28;20268;-75
2021/03/09 08:13:32;;;;;;;0.10;0.10;;;;;;;;;;5049894;28;20219;-75
2021/03/09 08:16:26;;;;;;;0.13;0.13;;;;;;;;;;5049795;28;20192;-75
2021/03/09 08:18:53;;;;;;;0.45;0.45;;;;;;;;;;5040716;28;20221;-76
2021/03/09 08:21:20;;;;;;;0.20;0.20;;;;;;;;;;5049892;28;20219;-75
2021/03/09 08:23:46;;;;;;;0.15;0.15;;;;;;;;;;5049967;28;20166;-75
2021/03/09 08:26:15;;;;;;;0.10;0.10;;;;;;;;;;5049797;28;20169;-76
2021/03/09 08:28:42;;;;;;;0.10;0.10;;;;;;;;;;5046799;28;20205;-74
2021/03/09 08:31:15;;;;;;;0.40;0.40;;;;;;;;;;5049615;28;20190;-74
2021/03/09 08:33:44;;;;;;;0.20;0.20;;;;;;;;;;5049683;28;20226;-76
2021/03/09 08:36:19;;;;;;;0.10;0.10;;;;;;;;;;5049666;28;20172;-76
2021/03/09 08:41:39;;;;;;;0.57;0.57;;;;;;;;;;5049624;28;20204;-77
2021/03/09 08:44:20;;;;;;;0.65;0.65;;;;;;;;;;5049598;28;20634;-71
2021/03/09 08:47:07;;;;;;;0.20;0.20;;;;;;;;;;5048234;28;20173;-73
2021/03/09 08:49:36;;;;;;;0.10;0.10;;;;;;;;;;5048530;28;20228;-74
2021/03/09 08:52:10;;;;;;;0.47;0.47;;;;;;;;;;5047835;28;20169;-77
2021/03/09 08:54:44;;;;;;;1.48;1.38;;;;;;;;;;5049459;28;20165;-76
2021/03/09 08:57:12;;;;;;;0.77;0.77;;;;;;;;;;5047852;28;20196;-70
2021/03/09 08:59:39;;;;;;;0.00;0.00;;;;;;;;;;5048955;28;20187;-71
2021/03/09 09:02:09;;;;;;;0.20;0.20;;;;;;;;;;5047270;28;20201;-71
2021/03/09 09:04:36;;;;;;;0.88;0.88;;;;;;;;;;5048881;28;20157;-71
2021/03/09 09:07:21;;;;;;;0.40;0.32;;;;;;;;;;5047817;28;20251;-71
2021/03/09 09:09:48;;;;;;;0.10;0.10;;;;;;;;;;5048998;28;20185;-71
2021/03/09 09:12:23;;;;;;;0.20;0.20;;;;;;;;;;5047373;28;20169;-70
2021/03/09 09:15:20;;;;;;;1.27;1.27;;;;;;;;;;5047887;28;20173;-71
2021/03/09 09:17:47;;;;;;;1.60;1.50;;;;;;;;;;5040048;28;20212;-70
2021/03/09 09:20:19;;;;;;;0.40;0.40;;;;;;;;;;5049105;28;20248;-71
2021/03/09 09:22:46;;;;;;;0.40;0.40;;;;;;;;;;5048791;28;20184;-72
2021/03/09 09:25:13;;;;;;;0.40;0.40;;;;;;;;;;5048540;28;20169;-72
2021/03/09 09:27:45;;;;;;;0.80;0.80;;;;;;;;;;5048476;28;20276;-72
2021/03/09 09:30:13;;;;;;;0.38;0.38;;;;;;;;;;5048342;28;20603;-72
2021/03/09 09:32:43;;;;;;;0.00;0.00;;;;;;;;;;5046065;28;20183;-71
2021/03/09 09:35:09;;;;;;;0.05;0.05;;;;;;;;;;5047460;28;20219;-71
2021/03/09 09:37:38;;;;;;;0.22;0.22;;;;;;;;;;5048163;28;20193;-71
2021/03/09 09:40:04;;;;;;;1.30;1.23;;;;;;;;;;5048547;28;20649;-72
2021/03/09 09:42:31;;;;;;;1.00;0.93;;;;;;;;;;5048703;28;20196;-72
2021/03/09 09:44:57;;;;;;;0.30;0.30;;;;;;;;;;5048711;28;20161;-71
2021/03/09 09:47:23;;;;;;;0.50;0.50;;;;;;;;;;5048525;28;20201;-71
2021/03/09 09:49:49;;;;;;;0.20;0.20;;;;;;;;;;5048570;28;20299;-71
2021/03/09 09:52:19;;;;;;;0.95;0.95;;;;;;;;;;5048474;28;20164;-71
2021/03/09 09:54:57;;;;;;;0.20;0.20;;;;;;;;;;5048359;28;20242;-71
2021/03/09 09:57:24;;;;;;;1.35;1.25;;;;;;;;;;5047091;28;20568;-71
2021/03/09 09:59:50;;;;;;;0.15;0.15;;;;;;;;;;5046720;28;20177;-71
2021/03/09 10:02:18;;;;;;;0.50;0.50;;;;;;;;;;5047375;28;20205;-70
2021/03/09 10:04:44;;;;;;;0.10;0.10;;;;;;;;;;5047928;28;20233;-70
2021/03/09 10:07:15;;;;;;;0.10;0.10;;;;;;;;;;5047010;28;20193;-71
2021/03/09 10:09:41;;;;;;;0.98;0.98;;;;;;;;;;5048378;28;20158;-70
2021/03/09 10:12:08;;;;;;;0.50;0.50;;;;;;;;;;5047197;28;20184;-71
2021/03/09 10:14:50;;;;;;;0.43;0.43;;;;;;;;;;5047036;28;20173;-70
2021/03/09 10:17:19;;;;;;;0.73;0.73;;;;;;;;;;5047969;28;20197;-70
2021/03/09 10:19:45;;;;;;;0.10;0.10;;;;;;;;;;5048531;28;20205;-71
2021/03/09 10:22:19;;;;;;;0.82;0.82;;;;;;;;;;5049911;28;20204;-70
2021/03/09 10:24:45;;;;;;;0.20;0.20;;;;;;;;;;5051960;28;20161;-70
2021/03/09 10:27:23;;;;;;;0.43;0.43;;;;;;;;;;5051915;28;20197;-71
2021/03/09 10:29:55;;;;;;;0.57;0.57;;;;;;;;;;5051982;28;20220;-70
2021/03/09 10:32:21;;;;;;;0.20;0.20;;;;;;;;;;5050546;28;20177;-70
2021/03/09 10:34:49;;;;;;;0.05;0.05;;;;;;;;;;5051851;28;20196;-70
2021/03/09 10:37:16;;;;;;;0.35;0.35;;;;;;;;;;5051449;28;20261;-71
2021/03/09 10:39:55;;;;;;;1.00;1.00;;;;;;;;;;5051650;28;20170;-70
2021/03/09 10:42:32;;;;;;;0.88;0.88;;;;;;;;;;5051290;28;20197;-71
2021/03/09 10:45:00;;;;;;;0.08;0.08;;;;;;;;;;5051646;28;20614;-70
2021/03/09 10:47:27;;;;;;;0.63;0.45;;;;;;;;;;5051684;28;20252;-71
2021/03/09 10:49:53;;;;;;;0.77;0.77;;;;;;;;;;5050222;28;20261;-71
2021/03/09 10:52:19;;;;;;;7.35;1.50;;;;;;;;;;5050232;28;20188;-71
2021/03/09 10:54:45;;;;;;;1.45;1.35;;;;;;;;;;5051472;28;20166;-70
2021/03/09 10:57:12;;;;;;;0.85;0.32;;;;;;;;;;5051248;28;20200;-71
2021/03/09 10:59:39;;;;;;;2.08;1.17;;;;;;;;;;5051364;28;20166;-71
2021/03/09 11:02:09;;;;;;;0.25;0.25;;;;;;;;;;5050056;28;20256;-71
2021/03/09 11:04:35;;;;;;;0.82;0.80;;;;;;;;;;5051499;28;20236;-71
2021/03/09 11:07:02;;;;;;;1.42;1.35;;;;;;;;;;5051239;28;20193;-72
2021/03/09 11:09:28;;;;;;;0.88;0.45;;;;;;;;;;5050228;28;20541;-71
2021/03/09 11:11:55;;;;;;;0.22;0.22;;;;;;;;;;5051065;28;20166;-71
2021/03/09 11:14:21;;;;;;;0.63;0.63;;;;;;;;;;5051065;28;20158;-70
2021/03/09 11:16:47;;;;;;;0.47;0.47;;;;;;;;;;5050971;28;20165;-71
2021/03/09 11:19:13;;;;;;;1.85;0.95;;;;;;;;;;5050679;28;20193;-71
2021/03/09 11:21:39;;;;;;;1.20;0.65;;;;;;;;;;5049691;28;20284;-70
2021/03/09 11:24:06;;;;;;;0.17;0.17;;;;;;;;;;5049729;28;20162;-70
2021/03/09 11:26:32;;;;;;;0.88;0.85;;;;;;;;;;5050701;28;20166;-70
2021/03/09 11:28:58;;;;;;;0.20;0.20;;;;;;;;;;5049604;28;20203;-71
2021/03/09 11:31:24;;;;;;;0.30;0.30;;;;;;;;;;5049146;28;20166;-70
2021/03/09 11:33:51;;;;;;;0.13;0.13;;;;;;;;;;5050554;28;20581;-70
2021/03/09 11:36:17;;;;;;;0.80;0.80;;;;;;;;;;5048740;28;20165;-70
2021/03/09 11:38:44;;;;;;;0.75;0.75;;;;;;;;;;5050084;28;20204;-70
2021/03/09 11:41:11;;;;;;;0.70;0.30;;;;;;;;;;5050168;28;20197;-70
2021/03/09 11:43:38;;;;;;;0.30;0.30;;;;;;;;;;5050493;28;20158;-70
2021/03/09 11:46:04;;;;;;;1.38;1.35;;;;;;;;;;5050365;28;20196;-70
2021/03/09 11:48:31;;;;;;;0.30;0.30;;;;;;;;;;5045642;28;20221;-70
2021/03/09 11:50:57;;;;;;;2.70;1.02;;;;;;;;;;5049101;28;20177;-70
2021/03/09 11:53:24;;;;;;;0.10;0.10;;;;;;;;;;5050202;28;20166;-69
2021/03/09 11:55:50;;;;;;;0.10;0.10;;;;;;;;;;5048999;28;20219;-70
2021/03/09 11:58:16;;;;;;;0.30;0.30;;;;;;;;;;5048354;28;20276;-71
2021/03/09 12:00:42;;;;;;;3.25;1.23;;;;;;;;;;5048441;28;20185;-71
2021/03/09 12:03:08;;;;;;;0.90;0.68;;;;;;;;;;5050140;28;20192;-70
2021/03/09 12:05:35;;;;;;;0.63;0.63;;;;;;;;;;5050238;28;20237;-70
2021/03/09 12:08:01;;;;;;;0.95;0.95;;;;;;;;;;5048574;28;20172;-69
2021/03/09 12:10:28;;;;;;;1.23;1.23;;;;;;;;;;5050319;28;20168;-69
2021/03/09 12:12:54;;;;;;;0.47;0.47;;;;;;;;;;5049877;28;20168;-68
2021/03/09 12:15:20;;;;;;;0.20;0.20;;;;;;;;;;5048534;28;20257;-69
2021/03/09 12:17:46;;;;;;;0.20;0.20;;;;;;;;;;5050135;28;20223;-69
2021/03/09 12:20:13;;;;;;;0.35;0.35;;;;;;;;;;5048637;28;20272;-69
2021/03/09 12:22:39;;;;;;;0.28;0.28;;;;;;;;;;5049797;28;20189;-69
2021/03/09 12:25:05;;;;;;;0.50;0.50;;;;;;;;;;5049695;28;20212;-69
2021/03/09 12:27:35;;;;;;;1.65;0.43;;;;;;;;;;5049757;28;20161;-69
2021/03/09 12:30:01;;;;;;;2.55;0.63;;;;;;;;;;5048054;28;20273;-70
2021/03/09 12:32:27;;;;;;;0.38;0.38;;;;;;;;;;5049862;28;20162;-70
2021/03/09 12:34:53;;;;;;;0.05;0.05;;;;;;;;;;5049784;28;20162;-69
2021/03/09 12:37:20;;;;;;;0.70;0.70;;;;;;;;;;5049584;28;20172;-69
2021/03/09 12:39:46;;;;;;;0.13;0.13;;;;;;;;;;5048145;28;20205;-69
2021/03/09 12:42:12;;;;;;;2.13;1.33;;;;;;;;;;5049322;28;20224;-69
2021/03/09 12:44:38;;;;;;;0.20;0.20;;;;;;;;;;5048947;28;20165;-68
2021/03/09 12:47:04;;;;;;;1.55;1.45;;;;;;;;;;5049109;28;20173;-69
2021/03/09 12:49:30;;;;;;;0.75;0.75;;;;;;;;;;5049242;28;20221;-69
2021/03/09 12:51:57;;;;;;;1.90;1.80;;;;;;;;;;5049043;28;20161;-68
2021/03/09 12:54:23;;;;;;;2.38;0.47;;;;;;;;;;5049340;28;20169;-68
2021/03/09 12:56:49;;;;;;;0.35;0.35;;;;;;;;;;5049211;28;20176;-69
2021/03/09 12:59:15;;;;;;;1.02;1.02;;;;;;;;;;5047991;28;20227;-69
2021/03/09 13:01:41;;;;;;;0.55;0.55;;;;;;;;;;5048962;28;20189;-68
2021/03/09 13:04:08;;;;;;;0.63;0.63;;;;;;;;;;5049177;28;20189;-68
2021/03/09 13:06:34;;;;;;;0.10;0.10;;;;;;;;;;5048617;28;20237;-68
2021/03/09 13:09:03;;;;;;;0.10;0.10;;;;;;;;;;5048239;28;20189;-69
2021/03/09 13:11:30;;;;;;;0.63;0.63;;;;;;;;;;5047743;28;20183;-68
2021/03/09 13:13:56;;;;;;;0.40;0.40;;;;;;;;;;5048949;28;20161;-68
2021/03/09 13:16:22;;;;;;;1.38;1.27;;;;;;;;;;5047809;28;20188;-68
2021/03/09 13:18:49;;;;;;;0.52;0.52;;;;;;;;;;5049059;28;20200;-68
2021/03/09 13:21:16;;;;;;;1.45;1.20;;;;;;;;;;5048914;28;20216;-70
2021/03/09 13:23:42;;;;;;;0.40;0.40;;;;;;;;;;5048755;28;20654;-69
2021/03/09 13:26:09;;;;;;;0.47;0.47;;;;;;;;;;5048545;28;20161;-68
2021/03/09 13:28:35;;;;;;;0.10;0.10;;;;;;;;;;5047566;28;20197;-69
2021/03/09 13:31:02;;;;;;;0.90;0.90;;;;;;;;;;5047229;28;20177;-69
2021/03/09 13:33:28;;;;;;;1.40;1.38;;;;;;;;;;5048379;28;20154;-69
2021/03/09 13:35:55;;;;;;;0.22;0.22;;;;;;;;;;5048662;28;20168;-68
2021/03/09 13:38:21;;;;;;;0.10;0.10;;;;;;;;;;5047105;28;20533;-70
2021/03/09 13:40:47;;;;;;;0.10;0.10;;;;;;;;;;5048701;28;20170;-68
2021/03/09 13:43:13;;;;;;;0.00;0.00;;;;;;;;;;5048537;28;20263;-69
2021/03/09 13:45:40;;;;;;;0.10;0.10;;;;;;;;;;5048803;28;20185;-69
2021/03/09 13:48:06;;;;;;;0.20;0.20;;;;;;;;;;5047118;28;20221;-68
2021/03/09 13:50:33;;;;;;;1.40;1.33;;;;;;;;;;5048713;28;20158;-69
2021/03/09 13:52:59;;;;;;;0.28;0.28;;;;;;;;;;5047387;28;20184;-69
2021/03/09 13:55:25;;;;;;;0.65;0.65;;;;;;;;;;5048532;28;20169;-68
2021/03/09 13:57:51;;;;;;;1.65;1.38;;;;;;;;;;5052802;28;20614;-70
2021/03/09 14:00:17;;;;;;;0.85;0.77;;;;;;;;;;5052625;28;20192;-70
2021/03/09 14:02:43;;;;;;;0.10;0.10;;;;;;;;;;5051368;28;20669;-67
2021/03/09 14:05:11;;;;;;;0.88;0.88;;;;;;;;;;5051144;28;20189;-69
2021/03/09 14:07:38;;;;;;;0.00;0.00;;;;;;;;;;5052325;28;20154;-67
2021/03/09 14:10:05;;;;;;;0.17;0.17;;;;;;;;;;5052316;28;20666;-68
2021/03/09 14:12:31;;;;;;;0.30;0.20;;;;;;;;;;5051283;28;20177;-68
2021/03/09 14:14:58;;;;;;;0.10;0.10;;;;;;;;;;5051055;28;20173;-69
2021/03/09 14:17:24;;;;;;;0.25;0.25;;;;;;;;;;5051082;28;20169;-67
2021/03/09 14:19:50;;;;;;;1.45;1.35;;;;;;;;;;5052264;28;20200;-68
2021/03/09 14:22:17;;;;;;;1.58;0.85;;;;;;;;;;5051793;28;20197;-69
2021/03/09 14:24:43;;;;;;;1.50;1.42;;;;;;;;;;5051041;28;20165;-69
2021/03/09 14:27:09;;;;;;;0.45;0.45;;;;;;;;;;5052049;28;20168;-69
2021/03/09 14:29:36;;;;;;;0.13;0.13;;;;;;;;;;5052058;28;20212;-69
2021/03/09 14:32:03;;;;;;;1.08;0.90;;;;;;;;;;5051859;28;20173;-69
2021/03/09 14:34:30;;;;;;;0.10;0.10;;;;;;;;;;5052083;28;20172;-69
2021/03/09 14:36:56;;;;;;;0.73;0.73;;;;;;;;;;5051739;28;20173;-70
2021/03/09 14:39:23;;;;;;;1.08;0.98;;;;;;;;;;5050333;28;20205;-69
2021/03/09 14:41:49;;;;;;;1.25;1.17;;;;;;;;;;5051824;28;20232;-70
2021/03/09 14:44:15;;;;;;;0.20;0.20;;;;;;;;;;5051706;28;20180;-68
2021/03/09 14:46:41;;;;;;;0.03;0.03;;;;;;;;;;5051733;28;20161;-69
2021/03/09 14:49:07;;;;;;;0.30;0.30;;;;;;;;;;5050192;28;20797;-69
2021/03/09 14:51:34;;;;;;;1.02;1.02;;;;;;;;;;5051787;28;20165;-69